Impacts METAR Board
IDs:

KSAN - San Diego Intl Arpt, CA, US

Updated at: 1200 UTC 13 Dec 2018
Potential Impact None Slight Moderate High
Time 13/00Z 13/01Z 13/02Z 13/03Z 13/04Z 13/05Z 13/06Z 13/07Z 13/08Z 13/09Z 13/10Z 13/11Z 13/12Z
Temp64 63 63 62 60 60 58 58 56 55 55 54 53
Dewpt54 55 55 55 54 54 53 53 52 51 51 49 49
Altim30.13 30.14 30.15 30.17 30.19 30.19 30.20 30.19 30.19 30.19 30.19 30.18 30.19
VIS10 10 10 10 10 8 9 8 8 7 7 9 8
CIG-- -- -- -- -- -- -- -- -- -- -- -- --
CoverFEWFEWFEWFEWFEWFEWFEWFEWFEWFEWFEWFEWFEW
FltCatVFRVFRVFRVFRVFRVFRVFRVFRVFRVFRVFRVFRVFR
WX--------------------------
WDir20017014015030303608000000
WSpd7 6 5 4 3 4 3 3 0 0 0 0 0
WGst-- -- -- -- -- -- -- -- -- -- -- -- --
Raw hourly METARs
KSAN 122351Z 20007KT 10SM FEW020 FEW250 18/12 A3013 RMK AO2 SLP201 T01780122 10183 20161 53004
KSAN 130051Z 17006KT 10SM FEW020 FEW250 17/13 A3014 RMK AO2 SLP205 T01720128
KSAN 130151Z 14005KT 10SM FEW020 FEW250 17/13 A3015 RMK AO2 SLP208 T01720128
KSAN 130251Z 15004KT 10SM FEW018 17/13 A3017 RMK AO2 SLP215 T01670128 53014
KSAN 130351Z 03003KT 10SM FEW018 16/12 A3019 RMK AO2 SLP221 T01560122
KSAN 130451Z 03004KT 8SM FEW018 16/12 A3019 RMK AO2 SLP223 T01560122
KSAN 130551Z 36003KT 9SM FEW018 14/12 A3020 RMK AO2 SLP224 T01440117 10178 20144 51009
KSAN 130651Z 08003KT 8SM FEW018 14/12 A3019 RMK AO2 SLP221 T01440117
KSAN 130751Z 00000KT 8SM FEW018 13/11 A3019 RMK AO2 SLP222 T01330111 401830117
KSAN 130851Z 00000KT 7SM FEW018 13/11 A3019 RMK AO2 SLP222 T01280106 56003
KSAN 130951Z 00000KT 7SM FEW018 13/11 A3019 RMK AO2 SLP223 T01280106
KSAN 131051Z 00000KT 9SM FEW018 12/09 A3018 RMK AO2 SLP219 T01220094
KSAN 131151Z 00000KT 8SM FEW018 12/09 A3019 RMK AO2 SLP222 T01170094 10150 20111 53000



Page loaded:  12:44 UTC  |   04:44 AM Pacific  |   05:44 AM Mountain  |   06:44 AM Central  |   07:44 AM Eastern

 

ADVISORIES

FORECASTS

FORECASTS

OBSERVATIONS

USER TOOLS

ABOUT US